Time;durP1;ratioP1;P1;durP2;ratioP2;P2;SDS_P1;SDS_P2;PMS_P1;PMS_P2;Temp;Humidity;BMP_temperature;BMP_pressure;BME280_temperature;BME280_humidity;BME280_pressure;Samples;Min_cycle;Max_cycle;Signal;HPM_P1;HPM_P2
2023/06/28 00:01:56;;;;;;;5.50;2.10;;;16.50;66.10;;;;;;5003055;28;20047;-71
2023/06/28 00:04:23;;;;;;;6.82;2.53;;;16.50;66.20;;;;;;4987460;28;20559;-71
2023/06/28 00:06:50;;;;;;;7.13;1.98;;;16.50;66.10;;;;;;4997650;28;20050;-71
2023/06/28 00:09:17;;;;;;;9.83;2.40;;;16.40;66.00;;;;;;5006651;28;20057;-71
2023/06/28 00:11:45;;;;;;;8.88;2.40;;;16.40;66.10;;;;;;5007613;28;20715;-71
2023/06/28 00:14:12;;;;;;;5.88;2.03;;;16.40;66.40;;;;;;5007579;28;20077;-71
2023/06/28 00:16:39;;;;;;;7.43;2.28;;;16.40;66.30;;;;;;5002919;28;20154;-71
2023/06/28 00:19:07;;;;;;;6.68;2.22;;;16.40;66.80;;;;;;4988376;28;20133;-71
2023/06/28 00:21:34;;;;;;;7.60;2.40;;;16.40;66.90;;;;;;4988439;28;20543;-71
2023/06/28 00:24:01;;;;;;;8.32;2.75;;;16.40;67.20;;;;;;5000846;28;20054;-71
2023/06/28 00:26:28;;;;;;;7.65;2.42;;;16.30;67.60;;;;;;5006582;28;20060;-71
2023/06/28 00:28:54;;;;;;;7.32;2.60;;;16.20;67.90;;;;;;5006178;28;20065;-71
2023/06/28 00:31:21;;;;;;;7.53;2.58;;;16.20;68.20;;;;;;4990046;28;20050;-72
2023/06/28 00:33:48;;;;;;;8.43;2.70;;;16.10;68.40;;;;;;5006280;28;20074;-71
2023/06/28 00:36:17;;;;;;;7.93;2.80;;;16.00;68.50;;;;;;5006434;28;20054;-71
2023/06/28 00:38:44;;;;;;;6.15;2.75;;;16.00;69.00;;;;;;4987007;28;20126;-71
2023/06/28 00:41:11;;;;;;;9.07;2.97;;;15.90;69.10;;;;;;4977821;28;20047;-71
2023/06/28 00:43:38;;;;;;;7.53;3.08;;;15.90;69.40;;;;;;4991682;28;20050;-71
2023/06/28 00:46:05;;;;;;;6.67;2.70;;;15.80;69.60;;;;;;5009776;28;20052;-71
2023/06/28 00:48:33;;;;;;;9.18;3.00;;;15.80;69.90;;;;;;5009614;28;20074;-71
2023/06/28 00:51:01;;;;;;;7.32;3.17;;;15.70;70.40;;;;;;4992791;28;20054;-71
2023/06/28 00:53:30;;;;;;;7.60;2.90;;;15.60;70.50;;;;;;4993104;28;20137;-71
2023/06/28 00:55:57;;;;;;;5.63;2.78;;;15.60;70.80;;;;;;5009167;28;20106;-70
2023/06/28 00:58:26;;;;;;;8.33;3.07;;;15.60;71.00;;;;;;5008474;28;20058;-71
2023/06/28 01:00:53;;;;;;;6.15;2.67;;;15.60;71.20;;;;;;5009144;28;20128;-71
2023/06/28 01:03:20;;;;;;;7.72;2.92;;;15.50;71.20;;;;;;5009246;28;20051;-71
2023/06/28 01:05:49;;;;;;;6.63;2.72;;;15.50;71.20;;;;;;4993125;28;20050;-71
2023/06/28 01:08:18;;;;;;;5.90;2.55;;;15.60;71.00;;;;;;5005818;28;20260;-71
2023/06/28 01:10:48;;;;;;;5.40;2.10;;;15.60;71.10;;;;;;4989475;28;20126;-71
2023/06/28 01:13:16;;;;;;;7.57;2.70;;;15.60;71.00;;;;;;4995946;28;20054;-71
2023/06/28 01:15:43;;;;;;;7.15;2.90;;;15.60;70.70;;;;;;5008167;28;20056;-71
2023/06/28 01:18:12;;;;;;;6.15;2.72;;;15.60;70.60;;;;;;5005835;28;20078;-71
2023/06/28 01:20:39;;;;;;;7.15;2.90;;;15.70;70.50;;;;;;4973415;28;20086;-71
2023/06/28 01:23:08;;;;;;;9.97;3.07;;;15.70;70.30;;;;;;4973991;28;20551;-71
2023/06/28 01:25:37;;;;;;;5.78;2.78;;;15.80;70.60;;;;;;4987510;28;20599;-71
2023/06/28 01:28:04;;;;;;;9.23;2.65;;;15.80;70.60;;;;;;5010845;28;20060;-71
2023/06/28 01:30:37;;;;;;;6.13;2.30;;;15.80;70.60;;;;;;5011786;28;20054;-71
2023/06/28 01:33:04;;;;;;;6.18;2.40;;;15.80;70.50;;;;;;4999782;28;20125;-71
2023/06/28 01:35:31;;;;;;;6.13;2.40;;;15.80;70.20;;;;;;4997241;28;20053;-71
2023/06/28 01:38:00;;;;;;;5.70;2.30;;;15.80;69.90;;;;;;5011188;28;20136;-70
2023/06/28 01:40:28;;;;;;;5.97;2.70;;;15.80;69.80;;;;;;5007375;28;20057;-71
2023/06/28 01:42:56;;;;;;;5.82;2.50;;;15.80;69.80;;;;;;5008585;28;20077;-71
2023/06/28 01:45:23;;;;;;;5.57;2.30;;;15.80;69.70;;;;;;4991004;28;20517;-71
2023/06/28 01:47:50;;;;;;;5.50;2.30;;;15.80;69.70;;;;;;4987446;28;20504;-71
2023/06/28 01:50:18;;;;;;;7.22;2.50;;;15.80;69.50;;;;;;4993471;28;20351;-71
2023/06/28 01:52:45;;;;;;;6.63;2.30;;;15.80;69.30;;;;;;4992365;28;20043;-71
2023/06/28 01:55:12;;;;;;;6.15;2.50;;;15.80;69.40;;;;;;4991759;28;21097;-71
2023/06/28 01:57:41;;;;;;;8.45;2.70;;;15.80;69.10;;;;;;4992387;28;20062;-71
2023/06/28 02:00:10;;;;;;;6.27;2.80;;;15.80;69.20;;;;;;4988624;28;20051;-71
2023/06/28 02:02:53;;;;;;;7.53;3.00;;;15.80;69.20;;;;;;5002746;28;20821;-71
2023/06/28 02:05:21;;;;;;;5.88;2.70;;;15.70;69.10;;;;;;5008611;28;20057;-71
2023/06/28 02:07:48;;;;;;;6.90;2.75;;;15.70;69.40;;;;;;5008628;28;20412;-71
2023/06/28 02:10:18;;;;;;;6.50;2.90;;;15.70;69.40;;;;;;5024777;28;20074;-71
2023/06/28 02:12:46;;;;;;;7.50;2.57;;;15.70;69.40;;;;;;5024433;28;20058;-71
2023/06/28 02:15:14;;;;;;;7.10;2.60;;;15.70;69.50;;;;;;4992103;28;20051;-71
2023/06/28 02:17:41;;;;;;;8.07;2.88;;;15.60;69.30;;;;;;4988401;28;20498;-71
2023/06/28 02:20:10;;;;;;;7.55;2.47;;;15.60;69.00;;;;;;4988516;28;20130;-71
2023/06/28 02:22:37;;;;;;;5.95;2.30;;;15.60;69.30;;;;;;4994856;28;20115;-71
2023/06/28 02:25:05;;;;;;;6.47;2.67;;;15.60;69.40;;;;;;4990607;28;20108;-71
2023/06/28 02:27:32;;;;;;;8.05;2.90;;;15.60;69.40;;;;;;4988120;28;20054;-71
2023/06/28 02:30:00;;;;;;;6.28;2.80;;;15.60;69.50;;;;;;4988008;28;20074;-71
2023/06/28 02:32:30;;;;;;;6.97;3.10;;;15.60;69.50;;;;;;4993140;28;20057;-71
2023/06/28 02:34:57;;;;;;;6.60;3.00;;;15.60;69.20;;;;;;5009172;28;20101;-71
2023/06/28 02:37:24;;;;;;;6.43;2.70;;;15.60;69.50;;;;;;4987982;28;20082;-71
2023/06/28 02:39:51;;;;;;;12.05;3.80;;;15.60;69.60;;;;;;4988242;28;20059;-71
2023/06/28 02:42:18;;;;;;;9.70;3.70;;;15.60;69.40;;;;;;4975863;28;20553;-71
2023/06/28 02:44:45;;;;;;;9.85;3.13;;;15.60;69.70;;;;;;5008038;28;20058;-71
2023/06/28 02:47:14;;;;;;;8.48;3.13;;;15.60;69.80;;;;;;5007818;28;20046;-71
2023/06/28 02:49:41;;;;;;;8.63;3.50;;;15.50;70.00;;;;;;4991436;28;20053;-71
2023/06/28 02:52:09;;;;;;;9.63;4.13;;;15.50;70.10;;;;;;5006862;28;20050;-71
2023/06/28 02:54:36;;;;;;;10.15;4.10;;;15.50;70.30;;;;;;5007554;28;20454;-70
2023/06/28 02:57:08;;;;;;;9.00;4.05;;;15.50;70.70;;;;;;4991196;28;20138;-71
2023/06/28 02:59:55;;;;;;;10.13;4.25;;;15.50;70.70;;;;;;5005516;28;20050;-71
2023/06/28 03:02:23;;;;;;;9.23;4.60;;;15.40;70.90;;;;;;5007324;28;20077;-71
2023/06/28 03:04:51;;;;;;;10.40;4.28;;;15.40;71.20;;;;;;5007669;28;20608;-70
2023/06/28 03:07:19;;;;;;;10.63;4.50;;;15.40;71.50;;;;;;5002909;28;20353;-71
2023/06/28 03:09:46;;;;;;;9.93;4.30;;;15.40;71.70;;;;;;4987845;28;20665;-71
2023/06/28 03:12:13;;;;;;;8.80;4.30;;;15.40;71.90;;;;;;4990677;28;20096;-70
2023/06/28 03:14:40;;;;;;;8.50;4.87;;;15.30;72.10;;;;;;4991351;28;20065;-71
2023/06/28 03:17:07;;;;;;;8.90;4.28;;;15.40;72.20;;;;;;4986386;28;20055;-71
2023/06/28 03:19:37;;;;;;;10.02;4.50;;;15.30;72.30;;;;;;4988680;28;20051;-71
2023/06/28 03:22:04;;;;;;;8.45;4.28;;;15.30;72.40;;;;;;4977365;28;20141;-70
2023/06/28 03:24:31;;;;;;;9.68;4.47;;;15.30;72.40;;;;;;4990954;28;20129;-71
2023/06/28 03:26:58;;;;;;;8.73;4.03;;;15.20;72.60;;;;;;5008619;28;20142;-71
2023/06/28 03:29:29;;;;;;;9.27;4.20;;;15.20;72.60;;;;;;5007251;28;20050;-71
2023/06/28 03:31:57;;;;;;;9.38;4.38;;;15.20;72.80;;;;;;4987163;28;20525;-71
2023/06/28 03:34:24;;;;;;;12.57;4.72;;;15.10;72.90;;;;;;4991194;28;20054;-71
2023/06/28 03:36:53;;;;;;;8.50;3.95;;;15.10;73.00;;;;;;5007014;28;20061;-71
2023/06/28 03:39:21;;;;;;;9.20;3.90;;;15.10;73.20;;;;;;5007004;28;20046;-71
2023/06/28 03:41:48;;;;;;;10.23;4.60;;;15.10;73.30;;;;;;4990215;28;20042;-71
2023/06/28 03:44:15;;;;;;;7.85;4.32;;;15.00;73.40;;;;;;5023668;28;20669;-71
2023/06/28 03:46:43;;;;;;;8.98;4.15;;;15.00;73.50;;;;;;5006711;28;20503;-71
2023/06/28 03:49:10;;;;;;;8.45;4.10;;;15.00;73.60;;;;;;5006877;28;20060;-71
2023/06/28 03:51:37;;;;;;;9.33;3.87;;;15.00;73.80;;;;;;4988677;28;20259;-72
2023/06/28 03:54:07;;;;;;;9.18;4.22;;;15.00;73.90;;;;;;5006939;28;20046;-71
2023/06/28 03:56:34;;;;;;;8.80;3.70;;;15.00;74.10;;;;;;5006526;28;20394;-71
2023/06/28 03:59:01;;;;;;;7.65;3.78;;;15.00;74.30;;;;;;5006686;28;20054;-71
2023/06/28 04:01:27;;;;;;;12.50;4.38;;;15.00;74.40;;;;;;5007620;28;20054;-71
2023/06/28 04:03:55;;;;;;;9.07;4.10;;;15.00;74.60;;;;;;5006636;28;20054;-71
2023/06/28 04:06:22;;;;;;;8.13;4.05;;;15.00;74.70;;;;;;5006888;28;20051;-71
2023/06/28 04:08:49;;;;;;;9.52;4.20;;;15.00;74.80;;;;;;5005523;28;20054;-71
2023/06/28 04:11:17;;;;;;;10.88;4.30;;;15.00;75.10;;;;;;5007591;28;20105;-71
2023/06/28 04:13:44;;;;;;;9.23;4.10;;;15.00;75.20;;;;;;5007751;28;20727;-71
2023/06/28 04:16:11;;;;;;;8.87;4.03;;;15.00;75.30;;;;;;4990419;28;20061;-71
2023/06/28 04:18:38;;;;;;;8.90;4.10;;;15.00;75.40;;;;;;5009646;28;20085;-71
2023/06/28 04:21:04;;;;;;;8.52;4.38;;;15.00;75.50;;;;;;5011507;28;20054;-71
2023/06/28 04:23:31;;;;;;;9.27;3.97;;;15.00;75.80;;;;;;5011386;28;20054;-71
2023/06/28 04:26:00;;;;;;;9.88;4.63;;;15.00;75.80;;;;;;5009191;28;20081;-71
2023/06/28 04:28:28;;;;;;;8.93;4.77;;;15.00;76.00;;;;;;5011068;28;20051;-71
2023/06/28 04:30:55;;;;;;;10.02;4.57;;;15.00;76.00;;;;;;5010654;28;20137;-71
2023/06/28 04:33:22;;;;;;;8.40;4.20;;;15.00;76.20;;;;;;5009850;28;20484;-71
2023/06/28 04:35:50;;;;;;;8.93;4.20;;;15.00;76.30;;;;;;5011130;28;20133;-71
2023/06/28 04:38:19;;;;;;;8.75;4.30;;;15.00;76.30;;;;;;4990309;28;20050;-71
2023/06/28 04:40:46;;;;;;;8.33;4.30;;;15.00;76.40;;;;;;4990020;28;20082;-71
2023/06/28 04:43:14;;;;;;;7.93;3.72;;;15.00;76.40;;;;;;5007942;28;20472;-71
2023/06/28 04:45:42;;;;;;;7.65;4.07;;;15.00;76.50;;;;;;5010946;28;20054;-71
2023/06/28 04:48:09;;;;;;;8.68;4.35;;;15.10;76.70;;;;;;5010810;28;20108;-71
2023/06/28 04:50:37;;;;;;;8.07;4.35;;;15.10;76.70;;;;;;5009188;28;20161;-71
2023/06/28 04:53:04;;;;;;;9.23;4.40;;;15.10;76.70;;;;;;5009265;28;20054;-71
2023/06/28 04:55:34;;;;;;;8.45;4.45;;;15.10;76.80;;;;;;4989259;28;20106;-71
2023/06/28 04:58:02;;;;;;;9.13;4.18;;;15.20;76.80;;;;;;5006593;28;20062;-71
2023/06/28 05:00:29;;;;;;;8.07;4.25;;;15.20;76.80;;;;;;5009445;28;20105;-71
2023/06/28 05:03:00;;;;;;;8.95;3.80;;;15.20;76.90;;;;;;5009118;28;20056;-71
2023/06/28 05:05:27;;;;;;;7.17;3.63;;;15.20;76.90;;;;;;5009073;28;20113;-71
2023/06/28 05:07:54;;;;;;;6.90;3.55;;;15.20;76.90;;;;;;5010570;28;20054;-71
2023/06/28 05:10:22;;;;;;;6.22;3.40;;;15.20;77.00;;;;;;4992624;28;20053;-71
2023/06/28 05:12:51;;;;;;;10.15;4.20;;;15.20;77.00;;;;;;5009150;28;20054;-71
2023/06/28 05:15:18;;;;;;;7.05;3.45;;;15.20;77.10;;;;;;5009161;28;20603;-71
2023/06/28 05:17:45;;;;;;;6.67;3.70;;;15.30;77.50;;;;;;5010453;28;21022;-71
2023/06/28 05:20:14;;;;;;;6.47;3.53;;;15.30;77.60;;;;;;5008995;28;20289;-71
2023/06/28 05:22:42;;;;;;;6.65;3.08;;;15.30;77.70;;;;;;5010139;28;20050;-71
2023/06/28 05:25:09;;;;;;;8.15;3.08;;;15.30;77.70;;;;;;5009135;28;20053;-71
2023/06/28 05:27:36;;;;;;;7.28;3.40;;;15.40;77.80;;;;;;5004326;28;20531;-71
2023/06/28 05:30:04;;;;;;;8.60;3.73;;;15.40;77.90;;;;;;5007435;28;20453;-72
2023/06/28 05:32:31;;;;;;;7.40;3.03;;;15.40;78.30;;;;;;5010045;28;20082;-71
2023/06/28 05:34:57;;;;;;;7.53;3.33;;;15.40;78.30;;;;;;5007330;28;20698;-71
2023/06/28 05:37:26;;;;;;;6.72;3.00;;;15.40;78.20;;;;;;5008120;28;20517;-71
2023/06/28 05:39:53;;;;;;;7.47;3.10;;;15.40;78.20;;;;;;5000643;28;20054;-71
2023/06/28 05:42:20;;;;;;;6.23;3.00;;;15.40;78.20;;;;;;4997637;28;20046;-71
2023/06/28 05:44:47;;;;;;;7.68;3.05;;;15.40;78.20;;;;;;4997458;28;20069;-71
2023/06/28 05:47:14;;;;;;;5.32;3.05;;;15.40;78.10;;;;;;4994784;28;20046;-71
2023/06/28 05:49:42;;;;;;;6.10;2.72;;;15.40;78.30;;;;;;4997802;28;20051;-72
2023/06/28 05:52:09;;;;;;;6.25;2.85;;;15.40;78.30;;;;;;5004818;28;20158;-71
2023/06/28 05:54:37;;;;;;;8.07;3.10;;;15.40;78.30;;;;;;4997495;28;20054;-71
2023/06/28 05:57:05;;;;;;;5.28;2.63;;;15.40;78.50;;;;;;4997676;28;20086;-71
2023/06/28 05:59:32;;;;;;;7.78;3.03;;;15.50;78.40;;;;;;5007195;28;20536;-70
2023/06/28 06:01:59;;;;;;;8.02;3.50;;;15.50;78.70;;;;;;5005545;28;20076;-70
2023/06/28 06:04:26;;;;;;;10.88;3.60;;;15.50;79.00;;;;;;5002937;28;20138;-70
2023/06/28 06:06:52;;;;;;;7.93;3.37;;;15.50;78.90;;;;;;4999145;28;20053;-71
2023/06/28 06:09:20;;;;;;;7.25;3.33;;;15.50;79.00;;;;;;4999011;28;20050;-71
2023/06/28 06:11:48;;;;;;;9.85;3.92;;;15.50;79.10;;;;;;4998960;28;20504;-70
2023/06/28 06:14:15;;;;;;;10.40;3.80;;;15.50;79.50;;;;;;4999199;28;20713;-71
2023/06/28 06:16:42;;;;;;;7.53;3.95;;;15.50;79.70;;;;;;5013062;28;20045;-70
2023/06/28 06:19:09;;;;;;;9.27;4.20;;;15.60;80.00;;;;;;5008532;28;20057;-70
2023/06/28 06:21:39;;;;;;;8.30;3.88;;;15.60;80.00;;;;;;5004180;28;20662;-71
2023/06/28 06:24:08;;;;;;;9.32;4.25;;;15.60;80.00;;;;;;4991645;28;20489;-70
2023/06/28 06:26:35;;;;;;;9.38;4.63;;;15.60;80.10;;;;;;5008317;28;20046;-71
2023/06/28 06:29:03;;;;;;;10.32;4.30;;;15.60;79.90;;;;;;5008017;28;20054;-70
2023/06/28 06:31:30;;;;;;;9.80;4.20;;;15.60;80.10;;;;;;5006598;28;20188;-71
2023/06/28 06:34:01;;;;;;;9.55;4.30;;;15.60;80.00;;;;;;5007411;28;20050;-71
2023/06/28 06:36:28;;;;;;;8.02;4.10;;;15.60;80.20;;;;;;5007256;28;20046;-71
2023/06/28 06:38:55;;;;;;;8.20;4.13;;;15.70;80.40;;;;;;5008612;28;20538;-71
2023/06/28 06:41:22;;;;;;;10.52;4.07;;;15.70;80.40;;;;;;5013933;28;20488;-70
2023/06/28 06:43:49;;;;;;;9.47;4.07;;;15.70;80.50;;;;;;5008002;28;20058;-70
2023/06/28 06:46:20;;;;;;;10.00;4.30;;;15.80;80.50;;;;;;4995168;28;20049;-71
2023/06/28 06:48:47;;;;;;;10.35;4.85;;;15.80;80.50;;;;;;5004019;28;20058;-71
2023/06/28 06:51:14;;;;;;;7.13;3.72;;;15.80;80.50;;;;;;5008220;28;20410;-71
2023/06/28 06:53:41;;;;;;;9.80;4.30;;;15.80;80.40;;;;;;5000774;28;20065;-72
2023/06/28 06:56:08;;;;;;;9.97;4.00;;;15.80;80.50;;;;;;5003801;28;20043;-71
2023/06/28 06:58:36;;;;;;;9.48;4.53;;;15.80;80.70;;;;;;5010290;28;20591;-71
2023/06/28 07:01:03;;;;;;;10.00;3.90;;;15.80;80.90;;;;;;5002595;28;20050;-71
2023/06/28 07:03:31;;;;;;;9.60;4.50;;;15.80;80.80;;;;;;5005361;28;20120;-71
2023/06/28 07:05:58;;;;;;;9.27;4.22;;;15.80;80.90;;;;;;5003629;28;20499;-72
2023/06/28 07:08:25;;;;;;;10.20;4.37;;;15.80;80.80;;;;;;4996245;28;20050;-72
2023/06/28 07:10:52;;;;;;;10.10;4.28;;;15.80;80.80;;;;;;5000029;28;20055;-71
2023/06/28 07:13:19;;;;;;;8.57;3.67;;;15.80;80.80;;;;;;4997667;28;20458;-71
2023/06/28 07:15:46;;;;;;;9.75;4.53;;;15.80;80.70;;;;;;4997381;28;20375;-71
2023/06/28 07:18:13;;;;;;;10.32;4.53;;;15.90;80.70;;;;;;5006623;28;20145;-71
2023/06/28 07:20:41;;;;;;;13.57;4.80;;;15.90;80.70;;;;;;5003666;28;20057;-71
2023/06/28 07:23:08;;;;;;;12.00;4.75;;;15.90;80.50;;;;;;5003407;28;20523;-71
2023/06/28 07:25:35;;;;;;;10.55;4.80;;;15.90;80.50;;;;;;5000292;28;20506;-71
2023/06/28 07:28:02;;;;;;;11.68;4.57;;;15.90;80.50;;;;;;4997777;28;20082;-71
2023/06/28 07:30:30;;;;;;;11.68;4.88;;;15.80;80.50;;;;;;4996720;28;20050;-71
2023/06/28 07:32:58;;;;;;;8.93;4.17;;;15.90;80.80;;;;;;4998231;28;20047;-71
2023/06/28 07:35:24;;;;;;;11.52;4.70;;;15.90;80.90;;;;;;5005564;28;20046;-75
2023/06/28 07:37:53;;;;;;;12.35;5.13;;;15.90;81.10;;;;;;5001025;28;20065;-75
2023/06/28 07:40:20;;;;;;;9.00;4.82;;;16.00;81.20;;;;;;4976659;28;20326;-74
2023/06/28 07:42:47;;;;;;;12.35;5.03;;;16.00;81.10;;;;;;4996431;28;20138;-74
2023/06/28 07:45:14;;;;;;;10.87;4.30;;;16.00;81.20;;;;;;4995333;28;20207;-75
2023/06/28 07:47:41;;;;;;;12.50;4.50;;;16.00;81.40;;;;;;4996285;28;20510;-75
2023/06/28 07:50:10;;;;;;;11.63;5.13;;;16.00;81.40;;;;;;4996458;28;20059;-72
2023/06/28 07:52:37;;;;;;;12.15;5.13;;;16.00;81.70;;;;;;4997954;28;20062;-73
2023/06/28 07:55:07;;;;;;;10.43;5.30;;;16.00;81.60;;;;;;4997517;28;20051;-72
2023/06/28 07:57:34;;;;;;;11.53;5.10;;;16.00;81.80;;;;;;4998523;28;20066;-72
2023/06/28 08:00:02;;;;;;;14.23;5.00;;;16.00;81.60;;;;;;4994096;28;20042;-73
2023/06/28 08:02:34;;;;;;;12.82;5.10;;;16.10;81.70;;;;;;5005173;28;20398;-72
2023/06/28 08:05:01;;;;;;;12.38;5.47;;;16.10;81.50;;;;;;5003120;28;20779;-73
2023/06/28 08:07:28;;;;;;;11.00;5.45;;;16.10;81.50;;;;;;5003835;28;20699;-72
2023/06/28 08:09:55;;;;;;;12.80;6.10;;;16.00;81.40;;;;;;5004873;28;20073;-73
2023/06/28 08:12:23;;;;;;;11.82;5.22;;;16.00;81.90;;;;;;5010977;28;20133;-72
2023/06/28 08:14:50;;;;;;;11.13;5.75;;;16.00;81.60;;;;;;5002892;28;20081;-72
2023/06/28 08:17:17;;;;;;;9.55;5.13;;;16.10;81.90;;;;;;5008869;28;20050;-73
2023/06/28 08:19:44;;;;;;;11.10;5.32;;;16.10;82.00;;;;;;5015137;28;20594;-73
2023/06/28 08:22:11;;;;;;;12.33;5.77;;;16.10;82.20;;;;;;5003988;28;20057;-73
2023/06/28 08:24:38;;;;;;;11.23;5.40;;;16.10;82.30;;;;;;5002774;28;20372;-72
2023/06/28 08:27:05;;;;;;;11.23;6.05;;;16.10;82.40;;;;;;4998372;28;20547;-72
2023/06/28 08:29:35;;;;;;;12.32;6.10;;;16.10;82.60;;;;;;4999723;28;20136;-73
2023/06/28 08:32:02;;;;;;;12.05;6.10;;;16.10;82.60;;;;;;4998974;28;20145;-72
2023/06/28 08:34:29;;;;;;;12.67;6.03;;;16.20;82.50;;;;;;5000480;28;20096;-73
2023/06/28 08:36:56;;;;;;;10.77;6.18;;;16.20;82.50;;;;;;5002388;28;20134;-72
2023/06/28 08:39:22;;;;;;;13.38;6.10;;;16.20;82.80;;;;;;5000433;28;20074;-73
2023/06/28 08:41:51;;;;;;;11.85;6.15;;;16.20;82.70;;;;;;5001113;28;20051;-73
2023/06/28 08:44:21;;;;;;;11.85;6.13;;;16.20;83.00;;;;;;5002606;28;20051;-73
2023/06/28 08:46:50;;;;;;;11.23;5.93;;;16.20;82.90;;;;;;5003547;28;20058;-73
2023/06/28 08:49:18;;;;;;;10.90;6.32;;;16.20;83.00;;;;;;5002108;28;20057;-73
2023/06/28 08:51:46;;;;;;;11.20;6.88;;;16.30;83.20;;;;;;5002343;28;20524;-73
2023/06/28 08:54:14;;;;;;;13.77;6.65;;;16.30;83.10;;;;;;5006700;28;20608;-72
2023/06/28 08:56:42;;;;;;;11.55;6.45;;;16.40;83.30;;;;;;5010610;28;20086;-73
2023/06/28 08:59:09;;;;;;;12.43;6.90;;;16.40;83.20;;;;;;5017037;28;20053;-71
2023/06/28 09:01:38;;;;;;;13.25;6.95;;;16.40;83.20;;;;;;5016138;28;20417;-73
2023/06/28 09:04:07;;;;;;;15.43;8.13;;;16.40;82.90;;;;;;5017031;28;20051;-72
2023/06/28 09:06:34;;;;;;;14.20;7.93;;;16.40;83.20;;;;;;5006216;28;20081;-72
2023/06/28 09:09:03;;;;;;;13.68;7.95;;;16.40;83.10;;;;;;5001257;28;20068;-72
2023/06/28 09:11:31;;;;;;;15.97;8.53;;;16.50;83.00;;;;;;5000095;28;20055;-72
2023/06/28 09:13:59;;;;;;;15.57;8.85;;;16.50;82.90;;;;;;5008925;28;20058;-73
2023/06/28 09:16:26;;;;;;;14.75;8.27;;;16.50;82.60;;;;;;5004242;28;20047;-73
2023/06/28 09:18:53;;;;;;;18.27;9.25;;;16.50;82.50;;;;;;4998991;28;20742;-73
2023/06/28 09:21:27;;;;;;;16.45;9.15;;;16.50;82.50;;;;;;5000022;28;20149;-73
2023/06/28 09:23:54;;;;;;;18.63;8.87;;;16.50;82.70;;;;;;5006089;28;20081;-74
2023/06/28 09:26:21;;;;;;;18.45;8.43;;;16.50;82.80;;;;;;4988171;28;20750;-74
2023/06/28 09:28:50;;;;;;;17.77;9.73;;;16.60;82.80;;;;;;5005885;28;20356;-73
2023/06/28 09:31:19;;;;;;;20.33;9.35;;;16.60;82.90;;;;;;5000303;28;20093;-73
2023/06/28 09:33:53;;;;;;;17.10;8.55;;;16.60;83.00;;;;;;5022072;28;20042;-73
2023/06/28 09:36:20;;;;;;;16.17;8.63;;;16.60;83.30;;;;;;4998127;28;20054;-73
2023/06/28 09:38:49;;;;;;;16.85;9.00;;;16.70;83.20;;;;;;5003947;28;20133;-72
2023/06/28 09:41:16;;;;;;;17.42;9.40;;;16.70;83.20;;;;;;5009572;28;20050;-73
2023/06/28 09:43:44;;;;;;;17.92;9.35;;;16.70;83.00;;;;;;5009568;28;20054;-73
2023/06/28 09:46:13;;;;;;;19.58;9.65;;;16.80;82.80;;;;;;5003555;28;20599;-73
2023/06/28 09:48:43;;;;;;;17.13;9.60;;;16.80;82.70;;;;;;5009118;28;20064;-72
2023/06/28 09:51:11;;;;;;;15.90;9.18;;;16.80;82.90;;;;;;5000817;28;20046;-72
2023/06/28 09:53:49;;;;;;;19.38;8.80;;;16.80;82.90;;;;;;4996857;28;20055;-72
2023/06/28 09:56:17;;;;;;;15.73;8.52;;;16.80;82.80;;;;;;5009653;28;20046;-73
2023/06/28 09:58:46;;;;;;;19.77;8.80;;;16.80;82.90;;;;;;4996451;28;20062;-73
2023/06/28 10:01:16;;;;;;;15.60;8.30;;;16.80;82.90;;;;;;5004644;28;20054;-73
2023/06/28 10:03:44;;;;;;;15.18;8.52;;;16.90;82.80;;;;;;5001938;28;20539;-73
2023/06/28 10:06:11;;;;;;;17.90;9.05;;;16.90;82.90;;;;;;5020202;28;20564;-73
2023/06/28 10:08:39;;;;;;;20.88;9.10;;;16.90;82.90;;;;;;5006948;28;20054;-72
2023/06/28 10:11:13;;;;;;;17.00;8.68;;;16.90;82.70;;;;;;5007628;28;20530;-71
2023/06/28 10:13:42;;;;;;;17.07;10.30;;;16.90;82.70;;;;;;4998647;28;20163;-72
2023/06/28 10:16:13;;;;;;;17.90;9.48;;;16.90;82.80;;;;;;5002102;28;20519;-73
2023/06/28 10:18:42;;;;;;;16.63;9.00;;;16.90;82.60;;;;;;5010059;28;20094;-73
2023/06/28 10:21:10;;;;;;;19.50;8.85;;;16.90;82.50;;;;;;4998649;28;20103;-74
2023/06/28 10:23:39;;;;;;;17.13;9.23;;;16.90;82.20;;;;;;5011814;28;20177;-73
2023/06/28 10:26:08;;;;;;;18.60;9.57;;;16.90;82.20;;;;;;5018318;28;20050;-73
2023/06/28 10:28:36;;;;;;;14.70;8.70;;;16.90;82.30;;;;;;5008222;28;20549;-74
2023/06/28 10:31:04;;;;;;;14.35;8.00;;;16.90;82.30;;;;;;5008249;28;20086;-73
2023/06/28 10:33:32;;;;;;;18.52;9.23;;;17.00;82.20;;;;;;5007361;28;20052;-74
2023/06/28 10:36:00;;;;;;;13.60;8.50;;;17.00;82.50;;;;;;5012792;28;20128;-73
2023/06/28 10:38:28;;;;;;;17.13;8.93;;;17.00;82.50;;;;;;5011001;28;20050;-73
2023/06/28 10:40:56;;;;;;;15.30;9.38;;;17.00;82.60;;;;;;5006387;28;20862;-72
2023/06/28 10:43:25;;;;;;;17.85;9.30;;;17.00;82.50;;;;;;5014832;28;20053;-72
2023/06/28 10:45:53;;;;;;;15.18;9.05;;;17.00;82.40;;;;;;5005177;28;20117;-71
2023/06/28 10:48:21;;;;;;;15.57;8.70;;;17.00;82.30;;;;;;5002629;28;20496;-71
2023/06/28 10:50:49;;;;;;;15.30;8.97;;;17.00;82.20;;;;;;4991413;28;20078;-71
2023/06/28 10:53:21;;;;;;;15.88;9.02;;;17.00;82.20;;;;;;4999782;28;20057;-71
2023/06/28 10:56:09;;;;;;;16.25;9.43;;;17.10;82.40;;;;;;5005934;28;20063;-71
2023/06/28 10:58:41;;;;;;;15.73;9.07;;;17.10;82.30;;;;;;5014333;28;20058;-71
2023/06/28 11:01:11;;;;;;;15.68;9.02;;;17.10;82.60;;;;;;5002461;28;20042;-71
2023/06/28 11:03:39;;;;;;;14.60;9.03;;;17.20;82.60;;;;;;4996634;28;20547;-71
2023/06/28 11:06:07;;;;;;;15.38;9.05;;;17.20;82.60;;;;;;5000379;28;20058;-71
2023/06/28 11:08:41;;;;;;;15.15;9.02;;;17.20;82.60;;;;;;5002821;28;20050;-71
2023/06/28 11:11:09;;;;;;;14.95;9.10;;;17.20;82.30;;;;;;5024854;28;20081;-71
2023/06/28 11:13:48;;;;;;;13.93;9.27;;;17.30;82.30;;;;;;5006595;28;20125;-71
2023/06/28 11:16:19;;;;;;;13.53;8.73;;;17.40;82.10;;;;;;5001758;28;20838;-71
2023/06/28 11:18:47;;;;;;;15.35;8.60;;;17.30;82.00;;;;;;5010298;28;20050;-71
2023/06/28 11:21:16;;;;;;;14.68;8.98;;;17.40;82.10;;;;;;5007343;28;20058;-71
2023/06/28 11:23:44;;;;;;;15.30;9.38;;;17.40;82.10;;;;;;5005835;28;20058;-71
2023/06/28 11:26:14;;;;;;;14.65;9.50;;;17.50;81.90;;;;;;4997019;28;20049;-71
2023/06/28 11:28:50;;;;;;;14.43;9.50;;;17.40;81.80;;;;;;5007095;28;20047;-71
2023/06/28 11:31:19;;;;;;;16.92;10.70;;;17.50;81.90;;;;;;5006410;28;20493;-71
2023/06/28 11:33:49;;;;;;;15.02;10.00;;;17.50;82.00;;;;;;5006472;28;20047;-71
2023/06/28 11:36:16;;;;;;;14.73;8.95;;;17.50;81.90;;;;;;5012869;28;20136;-71
2023/06/28 11:38:45;;;;;;;19.38;9.50;;;17.50;81.80;;;;;;5015856;28;20189;-71
2023/06/28 11:41:14;;;;;;;17.47;10.67;;;17.50;81.80;;;;;;4993716;28;20050;-71
2023/06/28 11:43:42;;;;;;;17.35;11.55;;;17.50;81.70;;;;;;4990634;28;20834;-71
2023/06/28 11:46:15;;;;;;;18.15;11.07;;;17.60;82.00;;;;;;5005668;28;20130;-71
2023/06/28 11:48:42;;;;;;;19.20;11.55;;;17.60;81.90;;;;;;5002283;28;20532;-71
2023/06/28 11:51:10;;;;;;;17.23;10.88;;;17.60;81.90;;;;;;4997914;28;20061;-71
2023/06/28 11:53:38;;;;;;;19.10;11.40;;;17.60;81.80;;;;;;4999670;28;20055;-71
2023/06/28 11:56:05;;;;;;;19.48;12.02;;;17.60;81.80;;;;;;4997155;28;20054;-71
2023/06/28 11:58:34;;;;;;;17.85;11.25;;;17.60;81.70;;;;;;4997742;28;20061;-71
2023/06/28 12:01:04;;;;;;;17.88;11.55;;;17.70;81.80;;;;;;5004397;28;20050;-71
2023/06/28 12:03:35;;;;;;;17.90;11.07;;;17.70;81.80;;;;;;5007523;28;20061;-71
2023/06/28 12:06:03;;;;;;;18.10;11.00;;;17.70;81.80;;;;;;5007535;28;20059;-71
2023/06/28 12:08:35;;;;;;;17.83;11.60;;;17.70;81.90;;;;;;5005689;28;20046;-71
2023/06/28 12:11:08;;;;;;;17.58;12.30;;;17.80;81.90;;;;;;5009863;28;20453;-71
2023/06/28 12:13:35;;;;;;;18.90;11.20;;;17.80;82.00;;;;;;5002191;28;20050;-70
2023/06/28 12:16:12;;;;;;;18.27;11.07;;;17.80;81.80;;;;;;4997846;28;20058;-71
2023/06/28 12:18:56;;;;;;;19.93;11.87;;;17.80;81.60;;;;;;4983666;28;20057;-71
2023/06/28 12:21:23;;;;;;;18.75;11.88;;;17.80;81.60;;;;;;5007283;28;20034;-71
2023/06/28 12:23:51;;;;;;;18.45;11.65;;;17.80;81.60;;;;;;5008083;28;20478;-71
2023/06/28 12:26:19;;;;;;;19.42;12.93;;;17.80;81.40;;;;;;5013428;28;20050;-70
2023/06/28 12:28:49;;;;;;;23.25;13.40;;;17.80;81.50;;;;;;5012133;28;20132;-70
2023/06/28 12:31:16;;;;;;;23.30;13.87;;;17.80;81.60;;;;;;5011380;28;20201;-70
2023/06/28 12:33:44;;;;;;;22.52;13.65;;;17.80;81.60;;;;;;5006010;28;20747;-70
2023/06/28 12:36:19;;;;;;;21.48;12.85;;;17.90;81.70;;;;;;5006761;28;20050;-71
2023/06/28 12:38:46;;;;;;;25.63;14.45;;;17.90;81.60;;;;;;5006664;28;20950;-71
2023/06/28 12:41:14;;;;;;;22.20;13.75;;;17.90;81.70;;;;;;5014613;28;20571;-70
2023/06/28 12:43:42;;;;;;;23.67;13.03;;;18.00;81.80;;;;;;5009541;28;20556;-70
2023/06/28 12:46:11;;;;;;;22.05;14.10;;;18.00;81.60;;;;;;5011414;28;20042;-70